createdAt,value
2022-12-15T00:00:48.423Z,100551.41
2022-12-15T00:03:46.486Z,100554.27
2022-12-15T00:06:32.961Z,100544.36
2022-12-15T00:09:20.731Z,100548.80
2022-12-15T00:12:08.053Z,100550.98
2022-12-15T00:14:55.035Z,100547.99
2022-12-15T00:17:41.875Z,100526.83
2022-12-15T00:20:29.422Z,100541.91
2022-12-15T00:23:16.939Z,100545.00
2022-12-15T00:26:03.851Z,100540.77
2022-12-15T00:28:50.150Z,100536.33
2022-12-15T00:31:36.978Z,100534.75
2022-12-15T00:34:23.738Z,100533.86
2022-12-15T00:37:10.487Z,100530.52
2022-12-15T00:39:40.345Z,100525.75
2022-12-15T00:42:09.904Z,100530.17
2022-12-15T00:44:38.087Z,100527.73
2022-12-15T00:47:06.653Z,100528.27
2022-12-15T00:50:13.702Z,100531.10
2022-12-15T00:53:00.671Z,100541.77
2022-12-15T00:55:47.313Z,100540.39
2022-12-15T00:58:34.140Z,100542.92
2022-12-15T01:01:28.730Z,100546.55
2022-12-15T01:04:15.685Z,100548.70
2022-12-15T01:07:02.953Z,100546.54
2022-12-15T01:09:49.377Z,100546.15
2022-12-15T01:12:36.638Z,100544.19
2022-12-15T01:15:23.963Z,100540.38
2022-12-15T01:18:11.128Z,100540.66
2022-12-15T01:20:39.702Z,100540.55
2022-12-15T01:23:07.882Z,100541.13
2022-12-15T01:25:39.561Z,100542.02
2022-12-15T01:28:07.707Z,100540.58
2022-12-15T01:30:35.850Z,100538.20
2022-12-15T01:33:04.019Z,100539.98
2022-12-15T01:35:32.363Z,100540.02
2022-12-15T01:38:00.760Z,100541.81
2022-12-15T01:40:50.223Z,100541.70
2022-12-15T01:43:22.580Z,100540.60
2022-12-15T01:45:54.081Z,100538.81
2022-12-15T01:48:30.628Z,100537.53
2022-12-15T01:51:17.229Z,100540.98
2022-12-15T01:53:54.807Z,100533.11
2022-12-15T01:56:26.385Z,100530.71
2022-12-15T01:59:00.473Z,100525.83
2022-12-15T02:01:29.757Z,100524.27
2022-12-15T02:03:58.079Z,100518.38
2022-12-15T02:06:27.242Z,100518.09
2022-12-15T02:08:58.814Z,100521.05
2022-12-15T02:11:37.518Z,100523.14
2022-12-15T02:14:11.510Z,100519.61
2022-12-15T02:17:15.208Z,100525.02
2022-12-15T02:19:52.378Z,100527.97
2022-12-15T02:22:32.674Z,100524.17
2022-12-15T02:25:16.090Z,100522.11
2022-12-15T02:28:25.798Z,100519.29
2022-12-15T02:31:22.099Z,100521.55
2022-12-15T02:34:01.822Z,100528.45
2022-12-15T02:36:45.549Z,100528.47
2022-12-15T02:39:14.409Z,100533.65
2022-12-15T02:41:46.301Z,100532.75
2022-12-15T02:44:23.234Z,100529.27
2022-12-15T02:47:16.070Z,100525.27
2022-12-15T02:50:05.731Z,100526.88
2022-12-15T02:52:46.061Z,100524.77
2022-12-15T02:55:17.270Z,100522.77
2022-12-15T02:57:53.942Z,100521.21
2022-12-15T03:00:23.109Z,100523.55
2022-12-15T03:02:54.369Z,100522.92
2022-12-15T03:05:25.050Z,100524.44
2022-12-15T03:07:54.957Z,100526.81
2022-12-15T03:10:25.556Z,100524.90
2022-12-15T03:12:55.085Z,100524.58
2022-12-15T03:15:23.771Z,100525.24
2022-12-15T03:17:52.612Z,100520.37
2022-12-15T03:20:20.956Z,100523.86
2022-12-15T03:22:49.137Z,100522.13
2022-12-15T03:25:17.358Z,100519.95
2022-12-15T03:27:46.532Z,100518.20
2022-12-15T03:30:15.155Z,100516.77
2022-12-15T03:32:43.373Z,100519.25
2022-12-15T03:35:13.096Z,100518.67
2022-12-15T03:37:43.036Z,100520.12
2022-12-15T03:40:14.095Z,100520.15
2022-12-15T03:42:48.953Z,100521.23
2022-12-15T03:45:20.948Z,100520.33
2022-12-15T03:47:50.704Z,100519.79
2022-12-15T03:50:21.455Z,100524.66
2022-12-15T03:52:55.221Z,100526.80
2022-12-15T03:55:24.345Z,100509.61
2022-12-15T03:57:52.705Z,100526.37
2022-12-15T04:00:22.066Z,100523.86
2022-12-15T04:02:52.224Z,100525.09
2022-12-15T04:05:32.398Z,100527.58
2022-12-15T04:08:01.690Z,100527.48
2022-12-15T04:10:34.760Z,100524.48
2022-12-15T04:13:11.376Z,100522.05
2022-12-15T04:15:40.861Z,100525.64
2022-12-15T04:18:11.046Z,100507.37
2022-12-15T04:20:40.479Z,100527.86
2022-12-15T04:23:08.898Z,100534.59
2022-12-15T04:25:55.810Z,100534.67
2022-12-15T04:28:42.465Z,100539.45
2022-12-15T04:31:32.051Z,100540.69
2022-12-15T04:34:22.887Z,100543.39
2022-12-15T04:37:12.148Z,100547.84
2022-12-15T04:40:06.124Z,100550.80
2022-12-15T04:42:54.504Z,100554.07
2022-12-15T04:45:43.645Z,100555.30
2022-12-15T04:48:30.381Z,100554.36
2022-12-15T04:51:17.620Z,100561.30
2022-12-15T04:54:04.609Z,100564.17
2022-12-15T04:56:54.068Z,100561.28
2022-12-15T04:59:40.893Z,100563.80
2022-12-15T05:02:27.709Z,100560.54
2022-12-15T05:05:14.285Z,100555.37
2022-12-15T05:08:01.213Z,100536.87
2022-12-15T05:10:47.926Z,100554.28
2022-12-15T05:13:35.070Z,100555.18
2022-12-15T05:16:23.439Z,100562.04
2022-12-15T05:19:10.202Z,100546.53
2022-12-15T05:21:56.714Z,100567.96
2022-12-15T05:24:43.623Z,100545.86
2022-12-15T05:27:30.471Z,100564.85
2022-12-15T05:30:17.141Z,100567.62
2022-12-15T05:32:45.301Z,100567.95
2022-12-15T05:35:13.700Z,100566.61
2022-12-15T05:37:41.859Z,100566.55
2022-12-15T05:40:10.571Z,100576.27
2022-12-15T05:42:38.710Z,100581.41
2022-12-15T05:45:07.337Z,100564.84
2022-12-15T05:47:36.038Z,100585.40
2022-12-15T05:50:04.493Z,100592.95
2022-12-15T05:52:32.830Z,100590.13
2022-12-15T05:55:01.049Z,100590.16
2022-12-15T05:57:29.257Z,100592.67
2022-12-15T05:59:57.457Z,100594.52
2022-12-15T06:02:25.766Z,100598.81
2022-12-15T06:04:54.262Z,100602.16
2022-12-15T06:07:22.777Z,100605.52
2022-12-15T06:09:50.908Z,100589.54
2022-12-15T06:12:19.115Z,100611.30
2022-12-15T06:14:47.394Z,100619.58
2022-12-15T06:17:18.163Z,100620.23
2022-12-15T06:19:46.569Z,100613.42
2022-12-15T06:22:14.917Z,100639.90
2022-12-15T06:24:43.092Z,100645.25
2022-12-15T06:27:11.388Z,100644.05
2022-12-15T06:29:39.592Z,100651.02
2022-12-15T06:32:07.820Z,100656.26
2022-12-15T06:34:36.033Z,100662.71
2022-12-15T06:37:04.697Z,100663.80
2022-12-15T06:39:32.885Z,100671.33
2022-12-15T06:42:01.065Z,100677.34
2022-12-15T06:44:29.389Z,100680.17
2022-12-15T06:46:57.793Z,100647.31
2022-12-15T06:49:25.989Z,100664.88
2022-12-15T06:51:54.118Z,100686.17
2022-12-15T06:54:22.461Z,100693.57
2022-12-15T06:56:50.887Z,100704.65
2022-12-15T06:59:19.130Z,100709.95
2022-12-15T07:01:47.716Z,100710.30
2022-12-15T07:04:16.085Z,100706.13
2022-12-15T07:06:45.444Z,100711.28
2022-12-15T07:09:17.219Z,100709.89
2022-12-15T07:11:49.380Z,100713.55
2022-12-15T07:14:17.724Z,100718.10
2022-12-15T07:16:46.328Z,100726.55
2022-12-15T07:19:14.659Z,100734.73
2022-12-15T07:21:42.996Z,100735.96
2022-12-15T07:24:13.145Z,100732.50
2022-12-15T07:26:41.865Z,100743.63
2022-12-15T07:29:10.450Z,100732.09
2022-12-15T07:31:38.954Z,100754.72
2022-12-15T07:34:07.407Z,100756.77
2022-12-15T07:36:35.639Z,100757.71
2022-12-15T07:39:05.139Z,100759.94
2022-12-15T07:41:35.655Z,100759.29
2022-12-15T07:44:04.312Z,100762.36
2022-12-15T07:46:32.971Z,100765.01
2022-12-15T07:49:01.282Z,100766.14
2022-12-15T07:51:29.824Z,100769.87
2022-12-15T07:53:58.166Z,100778.62
2022-12-15T07:56:26.455Z,100781.95
2022-12-15T07:58:54.691Z,100774.16
2022-12-15T08:01:23.007Z,100777.75
2022-12-15T08:03:51.437Z,100779.39
2022-12-15T08:06:19.819Z,100773.17
2022-12-15T08:08:50.609Z,100780.27
2022-12-15T08:11:22.839Z,100779.52
2022-12-15T08:16:40.192Z,100785.87
2022-12-15T08:19:13.079Z,100786.28
2022-12-15T08:21:43.017Z,100776.05
2022-12-15T08:24:12.058Z,100797.02
2022-12-15T08:26:42.501Z,100799.95
2022-12-15T08:32:02.168Z,100804.24
2022-12-15T08:34:31.132Z,100805.44
2022-12-15T08:36:59.560Z,100808.15
2022-12-15T08:39:28.031Z,100815.73
2022-12-15T08:41:56.483Z,100816.58
2022-12-15T08:44:25.075Z,100822.55
2022-12-15T08:46:53.757Z,100824.74
2022-12-15T08:49:22.679Z,100821.46
2022-12-15T08:51:51.604Z,100827.34
2022-12-15T08:54:20.906Z,100831.83
2022-12-15T08:56:50.125Z,100839.31
2022-12-15T08:59:19.556Z,100846.34
2022-12-15T09:01:48.598Z,100846.35
2022-12-15T09:04:17.967Z,100850.60
2022-12-15T09:06:50.710Z,100854.08
2022-12-15T09:09:19.889Z,100854.94
2022-12-15T09:11:49.295Z,100851.95
2022-12-15T09:14:25.517Z,100851.85
2022-12-15T09:16:55.735Z,100852.43
2022-12-15T09:19:24.092Z,100854.66
2022-12-15T09:21:52.371Z,100855.83
2022-12-15T09:24:32.230Z,100853.37
2022-12-15T09:27:03.561Z,100853.27
2022-12-15T09:29:32.543Z,100849.66
2022-12-15T09:32:01.185Z,100854.28
2022-12-15T09:34:30.193Z,100856.98
2022-12-15T09:36:58.689Z,100857.36
2022-12-15T09:39:27.455Z,100856.92
2022-12-15T09:41:59.373Z,100859.23
2022-12-15T09:44:32.223Z,100860.39
2022-12-15T09:47:30.710Z,100864.98
2022-12-15T09:50:03.304Z,100868.67
2022-12-15T09:52:42.677Z,100868.11
2022-12-15T09:55:23.385Z,100870.98
2022-12-15T09:57:56.269Z,100873.10
2022-12-15T10:00:26.008Z,100874.57
2022-12-15T10:03:16.441Z,100875.06
2022-12-15T10:06:07.299Z,100854.41
2022-12-15T10:08:36.979Z,100871.58
2022-12-15T10:11:13.996Z,100874.52
2022-12-15T10:13:58.682Z,100868.52
2022-12-15T10:16:50.263Z,100848.39
2022-12-15T10:19:31.297Z,100862.05
2022-12-15T10:22:00.321Z,100864.92
2022-12-15T10:27:50.871Z,100857.09
2022-12-15T10:30:19.888Z,100851.91
2022-12-15T10:32:57.998Z,100855.62
2022-12-15T10:35:31.089Z,100854.73
2022-12-15T10:38:03.874Z,100835.16
2022-12-15T10:40:52.383Z,100835.84
2022-12-15T10:43:27.658Z,100854.09
2022-12-15T10:46:13.775Z,100853.73
2022-12-15T10:48:44.631Z,100852.23
2022-12-15T10:51:22.080Z,100851.21
2022-12-15T10:54:04.755Z,100855.59
2022-12-15T10:56:34.777Z,100863.89
2022-12-15T10:59:22.814Z,100862.76
2022-12-15T11:01:52.365Z,100868.60
2022-12-15T11:04:34.184Z,100858.80
2022-12-15T11:07:04.266Z,100855.55
2022-12-15T11:09:38.736Z,100856.10
2022-12-15T11:12:50.518Z,100862.27
2022-12-15T11:15:31.349Z,100844.06
2022-12-15T11:18:11.401Z,100863.23
2022-12-15T11:20:50.782Z,100861.26
2022-12-15T11:23:28.092Z,100861.38
2022-12-15T11:26:22.630Z,100861.75
2022-12-15T11:29:00.029Z,100866.23
2022-12-15T11:31:38.542Z,100860.70
2022-12-15T11:34:17.817Z,100872.28
2022-12-15T11:37:07.461Z,100872.98
2022-12-15T11:39:49.650Z,100878.00
2022-12-15T11:42:45.064Z,100878.64
2022-12-15T11:45:22.736Z,100876.30
2022-12-15T11:47:56.482Z,100876.41
2022-12-15T11:51:06.607Z,100873.30
2022-12-15T11:53:59.516Z,100863.60
2022-12-15T11:56:33.935Z,100863.02
2022-12-15T11:59:20.829Z,100866.85
2022-12-15T12:02:03.055Z,100868.64
2022-12-15T12:08:16.269Z,100873.14
2022-12-15T12:10:47.912Z,100870.07
2022-12-15T12:13:35.601Z,100871.68
2022-12-15T12:16:35.516Z,100865.65
2022-12-15T12:19:03.827Z,100863.52
2022-12-15T12:21:40.032Z,100867.61
2022-12-15T12:24:11.273Z,100876.61
2022-12-15T12:26:51.154Z,100889.71
2022-12-15T12:29:34.518Z,100899.55
2022-12-15T12:32:40.166Z,100900.02
2022-12-15T12:35:33.212Z,100901.32
2022-12-15T12:41:06.297Z,100906.37
2022-12-15T12:43:40.405Z,100911.45
2022-12-15T12:46:20.470Z,100915.63
2022-12-15T12:49:03.732Z,100920.02
2022-12-15T12:51:33.303Z,100929.19
2022-12-15T12:54:02.410Z,100931.95
2022-12-15T12:56:39.424Z,100936.09
2022-12-15T12:59:30.864Z,100942.41
2022-12-15T13:02:14.669Z,100947.29
2022-12-15T13:04:50.116Z,100953.43
2022-12-15T13:07:36.724Z,100949.96
2022-12-15T13:10:07.845Z,100949.01
2022-12-15T13:13:15.853Z,100959.70
2022-12-15T13:15:50.929Z,100953.93
2022-12-15T13:18:25.348Z,100971.46
2022-12-15T13:20:57.741Z,100974.14
2022-12-15T13:23:27.777Z,100973.91
2022-12-15T13:25:59.182Z,100981.10
2022-12-15T13:28:38.448Z,100983.05
2022-12-15T13:31:21.877Z,100979.77
2022-12-15T13:33:50.892Z,100978.80
2022-12-15T13:36:37.630Z,100974.64
2022-12-15T13:39:12.627Z,100947.48
2022-12-15T13:42:00.324Z,100979.87
2022-12-15T13:44:35.552Z,100977.55
2022-12-15T13:47:13.754Z,100981.77
2022-12-15T13:50:01.368Z,100971.80
2022-12-15T13:55:40.749Z,100971.18
2022-12-15T13:58:09.530Z,100954.27
2022-12-15T14:00:48.715Z,100957.29
2022-12-15T14:03:20.307Z,100970.72
2022-12-15T14:05:55.527Z,100970.41
2022-12-15T14:08:27.119Z,100979.43
2022-12-15T14:10:58.928Z,100985.39
2022-12-15T14:13:35.686Z,100967.64
2022-12-15T14:16:07.807Z,100972.38
2022-12-15T14:19:04.267Z,100999.48
2022-12-15T14:21:32.692Z,101006.52
2022-12-15T14:26:50.823Z,101010.98
2022-12-15T14:29:20.372Z,101012.23
2022-12-15T14:31:53.649Z,101013.96
2022-12-15T14:34:27.301Z,101018.29
2022-12-15T14:36:59.427Z,101014.09
2022-12-15T14:39:40.695Z,101020.02
2022-12-15T14:42:19.367Z,101014.08
2022-12-15T14:44:50.868Z,101011.96
2022-12-15T14:47:28.727Z,101020.47
2022-12-15T14:50:01.347Z,101022.95
2022-12-15T14:52:35.178Z,101025.61
2022-12-15T14:55:35.197Z,101025.40
2022-12-15T14:58:36.398Z,101026.73
2022-12-15T15:01:25.464Z,101036.11
2022-12-15T15:03:10.972Z,100871.27
2022-12-15T15:03:12.826Z,100904.65
2022-12-15T15:03:14.310Z,101009.02
2022-12-15T15:04:02.480Z,101035.23
2022-12-15T15:06:40.491Z,101033.71
2022-12-15T15:09:19.211Z,101031.55
2022-12-15T15:11:50.461Z,101041.12
2022-12-15T15:14:24.005Z,101043.42
2022-12-15T15:17:22.940Z,101046.48
2022-12-15T15:20:04.040Z,101047.02
2022-12-15T15:23:08.003Z,101048.30
2022-12-15T15:25:48.909Z,101043.12
2022-12-15T15:28:20.242Z,101047.83
2022-12-15T15:30:59.537Z,101046.98
2022-12-15T15:33:28.668Z,101052.27
2022-12-15T15:36:01.881Z,101057.25
2022-12-15T15:38:38.319Z,101062.09
2022-12-15T15:41:16.457Z,101069.92
2022-12-15T15:43:46.096Z,101074.60
2022-12-15T15:46:18.450Z,101075.63
2022-12-15T15:49:01.205Z,101076.13
2022-12-15T15:51:32.396Z,101077.89
2022-12-15T15:54:11.849Z,101077.82
2022-12-15T15:56:41.765Z,101081.30
2022-12-15T15:59:16.533Z,101084.42
2022-12-15T16:01:47.351Z,101082.71
2022-12-15T16:04:16.293Z,101083.89
2022-12-15T16:06:47.519Z,101081.69
2022-12-15T16:09:17.107Z,101084.17
2022-12-15T16:11:46.783Z,101077.20
2022-12-15T16:14:17.773Z,101078.65
2022-12-15T16:16:46.672Z,101078.10
2022-12-15T16:19:15.328Z,101074.60
2022-12-15T16:21:44.003Z,101085.65
2022-12-15T16:24:18.937Z,101079.80
2022-12-15T16:26:50.575Z,101081.19
2022-12-15T16:29:20.956Z,101078.28
2022-12-15T16:31:49.770Z,101067.92
2022-12-15T16:34:20.699Z,101064.65
2022-12-15T16:36:49.635Z,101067.35
2022-12-15T16:39:32.069Z,101067.50
2022-12-15T16:42:00.989Z,101062.77
2022-12-15T16:44:30.076Z,101071.45
2022-12-15T16:46:59.707Z,101069.29
2022-12-15T16:49:33.858Z,101075.04
2022-12-15T16:52:06.644Z,101080.97
2022-12-15T16:54:35.180Z,101087.48
2022-12-15T16:57:05.748Z,101088.86
2022-12-15T16:59:37.255Z,101091.42
2022-12-15T17:02:28.230Z,101092.91
2022-12-15T17:04:57.081Z,101094.17
2022-12-15T17:07:27.892Z,101091.82
2022-12-15T17:09:56.908Z,101089.18
2022-12-15T17:12:25.872Z,101087.92
2022-12-15T17:14:54.523Z,101082.52
2022-12-15T17:17:22.911Z,101086.47
2022-12-15T17:20:27.568Z,101082.51
2022-12-15T17:22:40.790Z,101084.70
2022-12-15T17:25:53.970Z,101083.82
2022-12-15T17:28:40.933Z,101084.33
2022-12-15T17:31:18.722Z,101096.29
2022-12-15T17:33:48.215Z,101103.21
2022-12-15T17:36:22.744Z,101105.30
2022-12-15T17:39:02.019Z,101110.08
2022-12-15T17:41:59.869Z,101115.04
2022-12-15T17:44:32.936Z,101127.20
2022-12-15T17:47:04.756Z,101128.80
2022-12-15T17:49:36.382Z,101137.36
2022-12-15T17:52:18.146Z,101141.39
2022-12-15T17:54:46.603Z,101143.48
2022-12-15T17:57:15.303Z,101151.68
2022-12-15T17:59:43.796Z,101147.35
2022-12-15T18:02:13.869Z,101144.67
2022-12-15T18:04:43.223Z,101146.07
2022-12-15T18:07:16.979Z,101146.30
2022-12-15T18:09:45.804Z,101151.34
2022-12-15T18:12:22.728Z,101162.69
2022-12-15T18:14:51.323Z,101167.80
2022-12-15T18:17:20.783Z,101171.63
2022-12-15T18:19:49.396Z,101169.08
2022-12-15T18:22:23.519Z,101174.40
2022-12-15T18:24:53.928Z,101174.40
2022-12-15T18:27:26.476Z,101183.10
2022-12-15T18:29:56.790Z,101187.25
2022-12-15T18:32:27.476Z,101193.36
2022-12-15T18:34:56.109Z,101190.66
2022-12-15T18:37:25.427Z,101200.26
2022-12-15T18:39:57.144Z,101204.15
2022-12-15T18:42:29.538Z,101211.11
2022-12-15T18:45:00.481Z,101219.16
2022-12-15T18:47:28.875Z,101225.61
2022-12-15T18:49:57.093Z,101234.85
2022-12-15T18:52:34.418Z,101231.87
2022-12-15T18:55:03.341Z,101235.73
2022-12-15T18:57:36.128Z,101240.48
2022-12-15T19:00:08.701Z,101251.06
2022-12-15T19:02:37.136Z,101253.92
2022-12-15T19:05:07.331Z,101254.57
2022-12-15T19:07:36.186Z,101244.95
2022-12-15T19:10:05.357Z,101250.64
2022-12-15T19:12:34.430Z,101250.25
2022-12-15T19:15:02.906Z,101250.88
2022-12-15T19:17:49.809Z,101246.38
2022-12-15T19:20:38.913Z,101257.36
2022-12-15T19:23:08.009Z,101255.41
2022-12-15T19:25:36.512Z,101250.45
2022-12-15T19:28:10.529Z,101254.11
2022-12-15T19:30:42.220Z,101254.80
2022-12-15T19:33:15.202Z,101243.20
2022-12-15T19:35:46.806Z,101255.48
2022-12-15T19:38:28.358Z,101258.40
2022-12-15T19:40:59.186Z,101258.09
2022-12-15T19:43:27.674Z,101262.42
2022-12-15T19:45:57.953Z,101265.25
2022-12-15T19:48:26.442Z,101264.97
2022-12-15T19:50:55.119Z,101268.20
2022-12-15T19:53:25.675Z,101265.60
2022-12-15T19:55:56.282Z,101272.52
2022-12-15T19:58:28.943Z,101275.89
2022-12-15T20:01:00.491Z,101265.77
2022-12-15T20:03:33.103Z,101266.59
2022-12-15T20:06:03.901Z,101264.06
2022-12-15T20:08:37.680Z,101264.14
2022-12-15T20:11:14.981Z,101266.95
2022-12-15T20:13:43.878Z,101267.81
2022-12-15T20:16:17.738Z,101269.92
2022-12-15T20:18:48.769Z,101273.59
2022-12-15T20:21:22.252Z,101274.09
2022-12-15T20:24:07.884Z,101279.59
2022-12-15T20:26:39.495Z,101263.67
2022-12-15T20:29:26.213Z,101274.70
2022-12-15T20:31:56.796Z,101274.70
2022-12-15T20:34:25.902Z,101273.95
2022-12-15T20:36:54.895Z,101278.95
2022-12-15T20:39:29.584Z,101279.19
2022-12-15T20:41:59.175Z,101282.86
2022-12-15T20:44:27.994Z,101285.89
2022-12-15T20:46:56.734Z,101288.15
2022-12-15T20:49:25.160Z,101288.41
2022-12-15T20:51:53.606Z,101287.30
2022-12-15T20:54:22.900Z,101290.64
2022-12-15T20:56:51.391Z,101296.16
2022-12-15T20:59:20.166Z,101285.59
2022-12-15T21:01:48.801Z,101271.74
2022-12-15T21:04:27.592Z,101278.58
2022-12-15T21:06:56.828Z,101271.24
2022-12-15T21:09:25.538Z,101279.23
2022-12-15T21:11:55.295Z,101280.23
2022-12-15T21:14:24.889Z,101283.90
2022-12-15T21:16:53.661Z,101292.10
2022-12-15T21:19:22.991Z,101298.11
2022-12-15T21:21:55.430Z,101299.48
2022-12-15T21:24:27.270Z,101293.75
2022-12-15T21:26:56.297Z,101294.75
2022-12-15T21:29:27.880Z,101292.27
2022-12-15T21:31:56.387Z,101308.54
2022-12-15T21:34:24.705Z,101313.51
2022-12-15T21:36:55.017Z,101309.97
2022-12-15T21:39:31.176Z,101307.16
2022-12-15T21:42:03.363Z,101311.02
2022-12-15T21:44:31.817Z,101315.58
2022-12-15T21:47:00.452Z,101323.31
2022-12-15T21:49:29.294Z,101327.70
2022-12-15T21:52:00.362Z,101328.42
2022-12-15T21:54:35.005Z,101328.21
2022-12-15T21:57:03.931Z,101325.20
2022-12-15T21:59:33.331Z,101330.16
2022-12-15T22:02:02.609Z,101329.52
2022-12-15T22:04:34.554Z,101287.42
2022-12-15T22:07:03.437Z,101333.48
2022-12-15T22:09:31.972Z,101338.17
2022-12-15T22:12:01.332Z,101338.20
2022-12-15T22:14:34.382Z,101336.25
2022-12-15T22:17:12.572Z,101338.65
2022-12-15T22:19:41.056Z,101336.11
2022-12-15T22:22:09.451Z,101339.69
2022-12-15T22:24:38.275Z,101336.80
2022-12-15T22:27:17.958Z,101335.80
2022-12-15T22:29:47.231Z,101338.80
2022-12-15T22:32:17.439Z,101335.77
2022-12-15T22:34:45.862Z,101331.14
2022-12-15T22:37:14.425Z,101342.02
2022-12-15T22:39:42.875Z,101340.62
2022-12-15T22:42:16.966Z,101345.63
2022-12-15T22:44:46.085Z,101343.02
2022-12-15T22:47:14.914Z,101349.56
2022-12-15T22:49:43.542Z,101346.45
2022-12-15T22:52:20.621Z,101341.54
2022-12-15T22:54:49.098Z,101332.17
2022-12-15T22:57:26.183Z,101332.20
2022-12-15T23:00:05.000Z,101349.70
2022-12-15T23:02:37.001Z,101350.33
2022-12-15T23:05:06.724Z,101348.02
2022-12-15T23:07:35.764Z,101348.16
2022-12-15T23:10:23.647Z,101348.52
2022-12-15T23:12:54.875Z,101352.11
2022-12-15T23:15:44.331Z,101355.19
2022-12-15T23:18:13.663Z,101352.16
2022-12-15T23:20:42.633Z,101333.18
2022-12-15T23:23:11.122Z,101347.17
2022-12-15T23:25:39.581Z,101347.27
2022-12-15T23:28:08.344Z,101354.27
2022-12-15T23:30:36.851Z,101356.05
2022-12-15T23:33:05.718Z,101354.07
2022-12-15T23:35:34.181Z,101352.92
2022-12-15T23:38:03.076Z,101351.08
2022-12-15T23:40:31.389Z,101357.21
2022-12-15T23:43:00.753Z,101358.08
2022-12-15T23:45:29.094Z,101361.93
2022-12-15T23:47:57.556Z,101358.16
2022-12-15T23:50:26.472Z,101358.27
2022-12-15T23:52:54.906Z,101357.73
2022-12-15T23:55:23.326Z,101343.23
2022-12-15T23:57:51.936Z,101358.70
